createdAt,value
2019-01-25T00:01:37.208Z,62.77
2019-01-25T00:04:09.280Z,73.27
2019-01-25T00:06:41.016Z,63.40
2019-01-25T00:09:12.723Z,60.27
2019-01-25T00:11:44.464Z,59.10
2019-01-25T00:14:16.244Z,67.63
2019-01-25T00:16:47.978Z,58.37
2019-01-25T00:19:19.676Z,70.47
2019-01-25T00:21:51.399Z,61.10
2019-01-25T00:24:23.127Z,67.47
2019-01-25T00:26:54.912Z,62.20
2019-01-25T00:29:26.691Z,62.93
2019-01-25T00:31:58.410Z,58.93
2019-01-25T00:34:30.124Z,61.60
2019-01-25T00:37:01.840Z,63.90
2019-01-25T00:39:33.573Z,57.50
2019-01-25T00:42:05.288Z,60.30
2019-01-25T00:44:37.092Z,57.50
2019-01-25T00:47:08.983Z,60.47
2019-01-25T00:49:40.987Z,66.80
2019-01-25T00:52:12.696Z,62.33
2019-01-25T00:54:44.507Z,61.70
2019-01-25T00:57:16.524Z,55.33
2019-01-25T00:59:48.251Z,55.43
2019-01-25T01:02:19.972Z,58.10
2019-01-25T01:04:51.684Z,59.57
2019-01-25T01:07:23.412Z,60.23
2019-01-25T01:09:55.121Z,69.30
2019-01-25T01:12:26.858Z,67.13
2019-01-25T01:14:58.560Z,66.83
2019-01-25T01:17:30.364Z,66.70
2019-01-25T01:20:02.066Z,67.03
2019-01-25T01:22:33.803Z,63.83
2019-01-25T01:25:06.347Z,65.10
2019-01-25T01:27:38.138Z,69.87
2019-01-25T01:30:17.239Z,69.63
2019-01-25T01:32:49.233Z,64.23
2019-01-25T01:35:20.980Z,65.77
2019-01-25T01:37:53.332Z,65.90
2019-01-25T01:40:25.291Z,64.40
2019-01-25T01:42:57.009Z,63.17
2019-01-25T01:45:29.563Z,63.53
2019-01-25T01:48:01.509Z,68.20
2019-01-25T01:50:33.289Z,60.23
2019-01-25T01:53:05.146Z,74.27
2019-01-25T01:55:37.619Z,64.27
2019-01-25T01:58:09.404Z,59.63
2019-01-25T02:00:41.117Z,64.67
2019-01-25T02:03:13.024Z,63.73
2019-01-25T02:05:44.738Z,58.70
2019-01-25T02:08:16.456Z,66.30
2019-01-25T02:10:48.165Z,63.57
2019-01-25T02:13:19.886Z,67.23
2019-01-25T02:15:51.600Z,68.43
2019-01-25T02:18:23.329Z,68.57
2019-01-25T02:20:55.319Z,64.27
2019-01-25T02:23:27.042Z,56.87
2019-01-25T02:25:58.771Z,60.97
2019-01-25T02:28:30.476Z,56.47
2019-01-25T02:31:02.196Z,60.63
2019-01-25T02:33:34.214Z,63.97
2019-01-25T02:36:06.586Z,65.00
2019-01-25T02:38:38.311Z,61.13
2019-01-25T02:41:10.036Z,62.27
2019-01-25T02:43:41.745Z,64.60
2019-01-25T02:46:13.470Z,56.73
2019-01-25T02:48:45.174Z,61.97
2019-01-25T02:51:16.949Z,65.73
2019-01-25T02:53:48.693Z,61.53
2019-01-25T02:56:20.408Z,57.47
2019-01-25T02:58:52.128Z,60.00
2019-01-25T03:01:23.857Z,59.57
2019-01-25T03:03:55.931Z,61.03
2019-01-25T03:06:27.720Z,59.40
2019-01-25T03:08:59.434Z,60.57
2019-01-25T03:11:31.197Z,60.40
2019-01-25T03:14:02.917Z,57.60
2019-01-25T03:16:34.648Z,56.53
2019-01-25T03:19:06.369Z,57.43
2019-01-25T03:21:38.085Z,58.17
2019-01-25T03:24:09.821Z,54.30
2019-01-25T03:26:41.534Z,53.20
2019-01-25T03:29:13.217Z,53.90
2019-01-25T03:31:44.910Z,53.97
2019-01-25T03:34:16.609Z,54.33
2019-01-25T03:36:48.328Z,55.53
2019-01-25T03:39:20.041Z,57.10
2019-01-25T03:41:51.759Z,63.67
2019-01-25T03:44:23.458Z,52.67
2019-01-25T03:46:55.190Z,56.47
2019-01-25T03:49:26.871Z,63.30
2019-01-25T03:51:58.558Z,59.37
2019-01-25T03:54:30.307Z,60.30
2019-01-25T03:57:01.958Z,57.77
2019-01-25T03:59:33.682Z,57.63
2019-01-25T04:02:05.372Z,53.97
2019-01-25T04:04:37.417Z,57.63
2019-01-25T04:07:09.119Z,53.50
2019-01-25T04:09:40.837Z,53.50
2019-01-25T04:12:12.569Z,54.40
2019-01-25T04:14:44.256Z,60.70
2019-01-25T04:17:15.932Z,58.50
2019-01-25T04:19:47.635Z,56.60
2019-01-25T04:22:19.412Z,57.60
2019-01-25T04:24:51.178Z,60.97
2019-01-25T04:27:23.234Z,57.27
2019-01-25T04:29:55.020Z,56.60
2019-01-25T04:32:26.739Z,54.00
2019-01-25T04:34:58.455Z,61.60
2019-01-25T04:37:30.306Z,60.23
2019-01-25T04:40:02.460Z,62.23
2019-01-25T04:42:34.507Z,66.43
2019-01-25T04:45:10.891Z,60.00
2019-01-25T04:47:42.788Z,58.43
2019-01-25T04:50:25.210Z,61.07
2019-01-25T04:52:57.004Z,58.57
2019-01-25T04:55:32.798Z,59.77
2019-01-25T04:58:09.295Z,57.20
2019-01-25T05:00:41.291Z,61.40
2019-01-25T05:03:13.045Z,61.73
2019-01-25T05:05:44.810Z,59.67
2019-01-25T05:08:19.736Z,56.20
2019-01-25T05:10:52.137Z,59.47
2019-01-25T05:13:24.208Z,62.40
2019-01-25T05:15:55.910Z,62.03
2019-01-25T05:18:27.581Z,57.93
2019-01-25T05:20:59.362Z,53.80
2019-01-25T05:23:31.445Z,62.37
2019-01-25T05:26:03.472Z,56.57
2019-01-25T05:28:36.736Z,58.07
2019-01-25T05:31:08.883Z,56.73
2019-01-25T05:33:41.837Z,60.03
2019-01-25T05:36:13.883Z,58.17
2019-01-25T05:38:47.049Z,55.97
2019-01-25T05:41:19.063Z,58.30
2019-01-25T05:43:50.740Z,57.13
2019-01-25T05:46:23.506Z,61.47
2019-01-25T05:48:55.653Z,56.20
2019-01-25T05:51:33.630Z,57.37
2019-01-25T05:54:00.817Z,61.47
2019-01-25T05:56:32.895Z,63.50
2019-01-25T05:59:04.949Z,66.73
2019-01-25T06:01:38.562Z,60.77
2019-01-25T06:04:10.713Z,64.97
2019-01-25T06:06:42.679Z,58.30
2019-01-25T06:09:20.495Z,63.90
2019-01-25T06:11:52.257Z,54.63
2019-01-25T06:14:23.938Z,57.90
2019-01-25T06:16:55.638Z,53.47
2019-01-25T06:19:28.970Z,55.60
2019-01-25T06:22:00.917Z,62.10
2019-01-25T06:24:32.606Z,61.00
2019-01-25T06:27:04.358Z,59.57
2019-01-25T06:29:36.405Z,61.83
2019-01-25T06:32:08.092Z,54.40
2019-01-25T06:34:39.800Z,62.00
2019-01-25T06:37:11.481Z,62.20
2019-01-25T06:39:43.156Z,62.90
2019-01-25T06:42:14.896Z,65.27
2019-01-25T06:44:46.954Z,59.90
2019-01-25T06:47:18.803Z,60.47
2019-01-25T06:49:50.496Z,61.00
2019-01-25T06:52:22.177Z,70.60
2019-01-25T06:54:53.869Z,66.90
2019-01-25T06:57:27.493Z,62.27
2019-01-25T06:59:59.201Z,65.67
2019-01-25T07:02:31.234Z,72.90
2019-01-25T07:05:02.944Z,70.60
2019-01-25T07:07:35.311Z,69.80
2019-01-25T07:10:11.906Z,62.47
2019-01-25T07:12:43.592Z,63.77
2019-01-25T07:15:16.948Z,66.63
2019-01-25T07:17:48.694Z,68.83
2019-01-25T07:20:20.404Z,78.80
2019-01-25T07:22:52.780Z,60.53
2019-01-25T07:25:24.478Z,61.93
2019-01-25T07:27:56.162Z,64.57
2019-01-25T07:30:27.920Z,66.03
2019-01-25T07:32:59.630Z,65.00
2019-01-25T07:35:31.766Z,62.07
2019-01-25T07:38:03.522Z,63.87
2019-01-25T07:40:35.235Z,69.73
2019-01-25T07:43:06.920Z,67.53
2019-01-25T07:45:38.624Z,66.13
2019-01-25T07:48:10.324Z,65.53
2019-01-25T07:50:43.584Z,63.27
2019-01-25T07:53:15.314Z,74.30
2019-01-25T07:55:46.985Z,62.93
2019-01-25T07:58:18.726Z,64.93
2019-01-25T08:00:51.290Z,63.97
2019-01-25T08:03:23.580Z,68.57
2019-01-25T08:05:55.358Z,69.80
2019-01-25T08:08:27.215Z,66.47
2019-01-25T08:10:58.926Z,69.50
2019-01-25T08:13:30.677Z,65.00
2019-01-25T08:16:02.643Z,72.43
2019-01-25T08:18:35.207Z,69.20
2019-01-25T08:21:06.956Z,67.33
2019-01-25T08:23:39.518Z,72.37
2019-01-25T08:26:11.326Z,68.63
2019-01-25T08:28:43.102Z,68.23
2019-01-25T08:31:15.197Z,77.13
2019-01-25T08:33:46.879Z,73.57
2019-01-25T08:36:18.894Z,73.83
2019-01-25T08:38:50.640Z,71.17
2019-01-25T08:41:22.352Z,72.83
2019-01-25T08:43:54.282Z,72.37
2019-01-25T08:46:25.993Z,69.20
2019-01-25T08:48:57.691Z,73.23
2019-01-25T08:51:29.461Z,64.90
2019-01-25T08:54:01.154Z,71.67
2019-01-25T08:56:32.815Z,71.40
2019-01-25T08:59:04.874Z,72.60
2019-01-25T09:01:36.580Z,74.13
2019-01-25T09:04:08.265Z,73.87
2019-01-25T09:06:39.941Z,70.93
2019-01-25T09:09:11.652Z,78.13
2019-01-25T09:11:43.743Z,73.20
2019-01-25T09:14:15.429Z,71.47
2019-01-25T09:16:47.114Z,68.07
2019-01-25T09:19:18.831Z,77.03
2019-01-25T09:21:50.774Z,70.17
2019-01-25T09:24:22.458Z,78.30
2019-01-25T09:26:54.468Z,73.77
2019-01-25T09:29:26.147Z,77.03
2019-01-25T09:31:57.848Z,77.43
2019-01-25T09:34:29.539Z,71.03
2019-01-25T09:37:01.452Z,66.30
2019-01-25T09:39:33.122Z,74.90
2019-01-25T09:42:04.834Z,70.07
2019-01-25T09:44:36.516Z,68.37
2019-01-25T09:47:08.200Z,75.27
2019-01-25T09:49:39.895Z,67.50
2019-01-25T09:52:11.570Z,68.80
2019-01-25T09:54:43.246Z,68.50
2019-01-25T09:57:15.287Z,70.07
2019-01-25T09:59:46.987Z,73.27
2019-01-25T10:02:18.685Z,64.97
2019-01-25T10:04:50.390Z,62.13
2019-01-25T10:07:22.069Z,66.10
2019-01-25T10:09:53.776Z,71.30
2019-01-25T10:12:25.457Z,69.00
2019-01-25T10:14:57.184Z,65.60
2019-01-25T10:17:28.876Z,72.40
2019-01-25T10:20:00.579Z,66.80
2019-01-25T10:22:32.272Z,67.10
2019-01-25T10:25:05.807Z,72.87
2019-01-25T10:27:37.496Z,68.57
2019-01-25T10:30:16.545Z,72.33
2019-01-25T10:32:48.414Z,72.47
2019-01-25T10:35:20.240Z,69.60
2019-01-25T10:37:52.932Z,71.20
2019-01-25T10:40:25.535Z,72.47
2019-01-25T10:42:57.221Z,65.93
2019-01-25T10:45:39.443Z,66.17
2019-01-25T10:48:11.880Z,65.40
2019-01-25T10:50:43.881Z,66.27
2019-01-25T10:53:15.590Z,64.57
2019-01-25T10:55:47.818Z,61.47
2019-01-25T10:58:19.569Z,55.70
2019-01-25T11:00:51.456Z,61.40
2019-01-25T11:03:23.297Z,62.40
2019-01-25T11:05:55.025Z,65.23
2019-01-25T11:08:26.805Z,61.30
2019-01-25T11:10:58.488Z,59.63
2019-01-25T11:13:30.355Z,59.90
2019-01-25T11:16:02.171Z,64.73
2019-01-25T11:18:34.412Z,62.90
2019-01-25T11:21:06.091Z,59.37
2019-01-25T11:23:37.795Z,60.17
2019-01-25T11:26:09.493Z,61.33
2019-01-25T11:28:41.170Z,57.43
2019-01-25T11:31:13.141Z,60.47
2019-01-25T11:33:44.823Z,66.07
2019-01-25T11:36:16.517Z,59.30
2019-01-25T11:38:48.476Z,64.50
2019-01-25T11:41:20.165Z,56.83
2019-01-25T11:43:51.886Z,58.23
2019-01-25T11:46:23.645Z,54.20
2019-01-25T11:48:55.956Z,57.93
2019-01-25T11:51:27.685Z,60.27
2019-01-25T11:53:59.350Z,59.07
2019-01-25T11:56:31.311Z,57.67
2019-01-25T11:59:03.145Z,62.27
2019-01-25T12:01:35.624Z,60.80
2019-01-25T12:04:07.828Z,56.77
2019-01-25T12:06:39.524Z,57.37
2019-01-25T12:09:11.547Z,61.00
2019-01-25T12:11:43.273Z,55.67
2019-01-25T12:14:15.042Z,60.40
2019-01-25T12:16:46.723Z,57.40
2019-01-25T12:19:18.412Z,53.67
2019-01-25T12:21:50.115Z,55.60
2019-01-25T12:24:21.974Z,54.43
2019-01-25T12:26:53.932Z,57.97
2019-01-25T12:29:25.745Z,56.13
2019-01-25T12:31:57.763Z,57.13
2019-01-25T12:34:29.454Z,55.53
2019-01-25T12:37:04.707Z,53.90
2019-01-25T12:39:34.847Z,50.73
2019-01-25T12:42:06.550Z,54.57
2019-01-25T12:44:38.367Z,52.67
2019-01-25T12:47:10.312Z,58.33
2019-01-25T12:49:42.057Z,49.57
2019-01-25T12:52:13.764Z,53.27
2019-01-25T12:54:45.546Z,50.87
2019-01-25T12:57:17.500Z,49.63
2019-01-25T12:59:49.240Z,52.53
2019-01-25T13:02:21.538Z,48.60
2019-01-25T13:04:53.227Z,50.13
2019-01-25T13:07:25.600Z,48.63
2019-01-25T13:09:57.325Z,53.13
2019-01-25T13:12:29.018Z,48.17
2019-01-25T13:15:02.353Z,52.37
2019-01-25T13:17:34.032Z,42.60
2019-01-25T13:20:10.602Z,52.37
2019-01-25T13:22:42.394Z,48.53
2019-01-25T13:25:14.101Z,46.13
2019-01-25T13:27:45.892Z,47.57
2019-01-25T13:30:21.561Z,46.07
2019-01-25T13:32:53.603Z,52.10
2019-01-25T13:35:25.287Z,41.77
2019-01-25T13:37:57.047Z,40.87
2019-01-25T13:40:29.473Z,40.97
2019-01-25T13:43:01.161Z,43.60
2019-01-25T13:45:32.844Z,39.73
2019-01-25T13:48:04.545Z,47.97
2019-01-25T13:50:37.239Z,33.43
2019-01-25T13:53:08.931Z,45.83
2019-01-25T13:55:40.629Z,39.03
2019-01-25T13:58:12.323Z,45.37
2019-01-25T14:00:44.580Z,41.87
2019-01-25T14:03:16.269Z,43.33
2019-01-25T14:05:47.947Z,40.87
2019-01-25T14:08:21.437Z,44.07
2019-01-25T14:10:53.243Z,43.87
2019-01-25T14:13:24.934Z,39.43
2019-01-25T14:15:57.113Z,41.13
2019-01-25T14:18:28.819Z,40.97
2019-01-25T14:21:00.503Z,40.67
2019-01-25T14:23:32.211Z,40.97
2019-01-25T14:26:03.962Z,40.20
2019-01-25T14:28:35.669Z,38.50
2019-01-25T14:31:07.685Z,39.00
2019-01-25T14:33:39.814Z,36.97
2019-01-25T14:36:11.511Z,44.13
2019-01-25T14:38:43.224Z,40.70
2019-01-25T14:41:15.189Z,39.33
2019-01-25T14:43:54.232Z,41.63
2019-01-25T14:46:20.588Z,40.27
2019-01-25T14:48:53.925Z,41.93
2019-01-25T14:51:25.604Z,38.80
2019-01-25T14:53:57.320Z,38.13
2019-01-25T14:56:29.313Z,41.53
2019-01-25T14:59:01.190Z,47.97
2019-01-25T15:01:33.145Z,44.07
2019-01-25T15:04:04.888Z,34.67
2019-01-25T15:06:36.821Z,45.63
2019-01-25T15:09:09.890Z,47.97
2019-01-25T15:11:41.574Z,33.93
2019-01-25T15:14:13.296Z,49.00
2019-01-25T15:16:45.054Z,37.50
2019-01-25T15:19:16.745Z,36.63
2019-01-25T15:21:48.762Z,33.70
2019-01-25T15:24:20.512Z,34.60
2019-01-25T15:26:52.189Z,30.93
2019-01-25T15:29:23.879Z,34.37
2019-01-25T15:31:55.560Z,34.67
2019-01-25T15:34:27.291Z,30.70
2019-01-25T15:36:58.991Z,35.57
2019-01-25T15:39:30.729Z,35.60
2019-01-25T15:42:02.479Z,38.00
2019-01-25T15:44:34.178Z,39.97
2019-01-25T15:47:05.848Z,41.20
2019-01-25T15:49:37.555Z,38.83
2019-01-25T15:52:09.245Z,43.03
2019-01-25T15:54:41.075Z,38.50
2019-01-25T15:57:13.021Z,39.93
2019-01-25T15:59:44.795Z,46.90
2019-01-25T16:02:16.777Z,47.55
2019-01-25T16:04:48.464Z,46.33
2019-01-25T16:07:20.669Z,49.17
2019-01-25T16:09:52.364Z,46.90
2019-01-25T16:12:24.044Z,45.50
2019-01-25T16:14:55.988Z,44.80
2019-01-25T16:17:27.886Z,44.83
2019-01-25T16:19:59.587Z,47.40
2019-01-25T16:22:31.306Z,49.67
2019-01-25T16:25:03.090Z,46.60
2019-01-25T16:27:35.082Z,47.77
2019-01-25T16:30:14.346Z,45.40
2019-01-25T16:32:46.085Z,51.37
2019-01-25T16:35:17.789Z,49.70
2019-01-25T16:37:49.463Z,50.60
2019-01-25T16:40:27.946Z,46.07
2019-01-25T16:43:00.196Z,47.23
2019-01-25T16:45:40.556Z,48.07
2019-01-25T16:48:12.288Z,49.53
2019-01-25T16:50:43.955Z,52.27
2019-01-25T16:53:15.673Z,45.60
2019-01-25T16:55:47.352Z,50.23
2019-01-25T16:58:19.038Z,46.33
2019-01-25T17:00:50.985Z,45.13
2019-01-25T17:03:22.679Z,47.33
2019-01-25T17:05:54.426Z,46.33
2019-01-25T17:08:26.469Z,47.00
2019-01-25T17:10:58.153Z,44.33
2019-01-25T17:13:29.973Z,43.23
2019-01-25T17:16:01.654Z,45.77
2019-01-25T17:18:33.434Z,47.37
2019-01-25T17:21:05.215Z,50.43
2019-01-25T17:23:37.232Z,47.87
2019-01-25T17:26:08.930Z,48.80
2019-01-25T17:28:40.616Z,49.93
2019-01-25T17:31:12.326Z,46.57
2019-01-25T17:33:44.369Z,48.23
2019-01-25T17:36:16.131Z,49.33
2019-01-25T17:38:47.827Z,51.87
2019-01-25T17:41:19.515Z,44.80
2019-01-25T17:43:51.206Z,53.93
2019-01-25T17:46:22.886Z,53.50
2019-01-25T17:48:54.649Z,49.67
2019-01-25T17:51:27.279Z,53.30
2019-01-25T17:53:59.221Z,46.03
2019-01-25T17:56:30.916Z,60.20
2019-01-25T17:59:02.625Z,51.77
2019-01-25T18:01:34.308Z,58.40
2019-01-25T18:04:06.009Z,57.93
2019-01-25T18:06:37.697Z,53.23
2019-01-25T18:09:09.408Z,57.03
2019-01-25T18:11:41.082Z,52.27
2019-01-25T18:14:12.779Z,56.03
2019-01-25T18:16:44.459Z,56.47
2019-01-25T18:19:16.148Z,57.73
2019-01-25T18:21:47.833Z,60.67
2019-01-25T18:24:19.852Z,61.00
2019-01-25T18:26:51.538Z,58.93
2019-01-25T18:29:23.302Z,58.07
2019-01-25T18:31:54.990Z,58.83
2019-01-25T18:34:26.679Z,59.90
2019-01-25T18:36:58.364Z,63.40
2019-01-25T18:39:30.062Z,60.13
2019-01-25T18:42:01.749Z,63.73
2019-01-25T18:44:33.435Z,70.53
2019-01-25T18:47:05.188Z,61.87
2019-01-25T18:49:36.891Z,68.53
2019-01-25T18:52:08.567Z,70.87
2019-01-25T18:54:40.262Z,76.20
2019-01-25T18:57:11.937Z,70.40
2019-01-25T18:59:44.584Z,70.77
2019-01-25T19:02:17.688Z,70.00
2019-01-25T19:04:49.376Z,69.37
2019-01-25T19:07:21.064Z,66.53
2019-01-25T19:09:52.764Z,74.80
2019-01-25T19:12:24.510Z,65.50
2019-01-25T19:14:56.472Z,71.00
2019-01-25T19:17:29.158Z,68.80
2019-01-25T19:20:00.863Z,66.10
2019-01-25T19:22:32.553Z,70.50
2019-01-25T19:25:06.878Z,70.27
2019-01-25T19:27:38.643Z,64.30
2019-01-25T19:30:18.196Z,71.67
2019-01-25T19:32:51.167Z,67.67
2019-01-25T19:35:22.841Z,71.27
2019-01-25T19:37:54.900Z,69.13
2019-01-25T19:40:33.424Z,68.30
2019-01-25T19:43:06.314Z,69.47
2019-01-25T19:45:37.998Z,74.03
2019-01-25T19:48:09.743Z,70.63
2019-01-25T19:50:41.445Z,71.73
2019-01-25T19:53:16.806Z,83.90
2019-01-25T19:55:48.496Z,69.87
2019-01-25T19:58:20.196Z,75.60
2019-01-25T20:00:51.975Z,74.93
2019-01-25T20:03:23.729Z,76.43
2019-01-25T20:05:55.480Z,71.57
2019-01-25T20:08:27.238Z,74.07
2019-01-25T20:10:58.918Z,83.40
2019-01-25T20:13:31.443Z,76.53
2019-01-25T20:16:03.134Z,86.10
2019-01-25T20:18:34.891Z,79.87
2019-01-25T20:21:06.583Z,86.93
2019-01-25T20:23:39.151Z,82.87
2019-01-25T20:26:10.825Z,80.80
2019-01-25T20:28:42.579Z,84.13
2019-01-25T20:31:14.270Z,91.27
2019-01-25T20:33:46.021Z,93.03
2019-01-25T20:36:17.707Z,90.63
2019-01-25T20:38:49.698Z,91.20
2019-01-25T20:41:21.653Z,89.80
2019-01-25T20:43:53.326Z,93.27
2019-01-25T20:46:25.278Z,96.33
2019-01-25T20:48:56.958Z,100.90
2019-01-25T20:51:28.658Z,98.23
2019-01-25T20:54:00.411Z,106.73
2019-01-25T20:56:32.126Z,96.53
2019-01-25T20:59:03.819Z,107.40
2019-01-25T21:01:35.507Z,98.77
2019-01-25T21:04:08.306Z,104.93
2019-01-25T21:06:40.090Z,102.37
2019-01-25T21:09:11.834Z,105.27
2019-01-25T21:11:43.548Z,105.60
2019-01-25T21:14:15.654Z,107.00
2019-01-25T21:16:47.347Z,98.20
2019-01-25T21:19:19.022Z,99.90
2019-01-25T21:21:50.716Z,95.87
2019-01-25T21:24:22.389Z,103.20
2019-01-25T21:26:54.096Z,98.17
2019-01-25T21:29:25.808Z,89.53
2019-01-25T21:31:57.553Z,94.30
2019-01-25T21:34:29.336Z,106.17
2019-01-25T21:37:01.681Z,97.30
2019-01-25T21:39:35.031Z,96.00
2019-01-25T21:42:06.698Z,97.93
2019-01-25T21:44:38.463Z,98.03
2019-01-25T21:47:10.563Z,89.57
2019-01-25T21:49:42.303Z,89.93
2019-01-25T21:52:13.980Z,94.33
2019-01-25T21:54:45.671Z,92.20
2019-01-25T21:57:17.385Z,95.10
2019-01-25T21:59:49.083Z,105.07
2019-01-25T22:02:20.793Z,91.23
2019-01-25T22:04:52.521Z,93.03
2019-01-25T22:07:24.572Z,91.30
2019-01-25T22:09:56.605Z,93.87
2019-01-25T22:12:28.560Z,96.90
2019-01-25T22:15:00.250Z,97.00
2019-01-25T22:17:32.310Z,95.47
2019-01-25T22:20:07.455Z,82.57
2019-01-25T22:22:39.500Z,93.10
2019-01-25T22:25:12.632Z,92.50
2019-01-25T22:27:46.433Z,92.70
2019-01-25T22:30:21.253Z,87.77
2019-01-25T22:32:52.936Z,84.93
2019-01-25T22:35:25.048Z,89.40
2019-01-25T22:37:56.768Z,91.93
2019-01-25T22:40:30.437Z,84.40
2019-01-25T22:43:02.470Z,93.73
2019-01-25T22:45:34.159Z,90.63
2019-01-25T22:48:05.843Z,88.37
2019-01-25T22:50:37.536Z,86.40
2019-01-25T22:53:09.230Z,82.57
2019-01-25T22:55:40.911Z,84.07
2019-01-25T22:58:12.623Z,79.07
2019-01-25T23:01:00.431Z,85.03
2019-01-25T23:03:51.647Z,83.63
2019-01-25T23:06:40.124Z,86.00
2019-01-25T23:09:17.048Z,78.77
2019-01-25T23:11:49.175Z,78.53
2019-01-25T23:14:21.133Z,88.57
2019-01-25T23:16:52.820Z,82.23
2019-01-25T23:19:24.505Z,89.43
2019-01-25T23:21:56.328Z,81.00
2019-01-25T23:24:27.990Z,93.07
2019-01-25T23:26:59.780Z,89.93
2019-01-25T23:29:31.476Z,91.73
2019-01-25T23:32:03.946Z,89.80
2019-01-25T23:34:36.058Z,87.17
2019-01-25T23:37:07.812Z,99.03
2019-01-25T23:39:39.502Z,92.20
2019-01-25T23:42:11.672Z,89.27
2019-01-25T23:44:43.356Z,97.50
2019-01-25T23:47:15.059Z,88.23
2019-01-25T23:49:46.737Z,89.63
2019-01-25T23:52:18.443Z,96.60
2019-01-25T23:54:50.152Z,85.50
2019-01-25T23:57:22.146Z,92.30
2019-01-25T23:59:53.840Z,94.37
